Time;durP1;ratioP1;P1;durP2;ratioP2;P2;SDS_P1;SDS_P2;PMS_P1;PMS_P2;Temp;Humidity;BMP_temperature;BMP_pressure;BME280_temperature;BME280_humidity;BME280_pressure;Samples;Min_cycle;Max_cycle;Signal;HPM_P1;HPM_P2
2021/03/18 00:00:54;;;;;;;20.60;12.17;;;;;;;3.64;95.43;94205.78;5055691;28;20525;-75
2021/03/18 00:03:24;;;;;;;16.37;11.70;;;;;;;3.60;95.36;94206.94;5055846;28;20463;-75
2021/03/18 00:05:52;;;;;;;13.90;10.80;;;;;;;3.59;94.97;94212.25;5055900;28;20473;-75
2021/03/18 00:08:19;;;;;;;11.70;10.20;;;;;;;3.57;94.10;94212.34;5055746;28;20490;-75
2021/03/18 00:10:46;;;;;;;14.47;10.60;;;;;;;3.67;94.81;94213.34;5055798;28;20429;-76
2021/03/18 00:13:13;;;;;;;13.80;10.83;;;;;;;3.66;94.40;94211.69;5055759;28;20437;-75
2021/03/18 00:15:42;;;;;;;13.50;10.37;;;;;;;3.66;93.74;94216.06;5055755;28;20454;-75
2021/03/18 00:18:09;;;;;;;14.23;10.37;;;;;;;3.65;94.04;94214.41;5055496;28;20503;-76
2021/03/18 00:20:36;;;;;;;14.50;10.20;;;;;;;3.66;93.42;94211.69;5020470;28;20437;-75
2021/03/18 00:23:04;;;;;;;18.07;12.27;;;;;;;3.67;93.90;94207.34;5055157;28;20480;-75
2021/03/18 00:25:30;;;;;;;13.10;9.53;;;;;;;3.70;92.98;94215.75;5055537;28;20426;-76
2021/03/18 00:27:56;;;;;;;14.33;10.10;;;;;;;3.80;93.33;94204.75;5054753;28;20488;-76
2021/03/18 00:30:24;;;;;;;12.80;10.80;;;;;;;3.87;93.48;94211.16;5020084;28;20437;-76
2021/03/18 00:32:52;;;;;;;12.83;10.40;;;;;;;3.92;92.95;94204.72;5054802;28;20488;-75
2021/03/18 00:35:20;;;;;;;15.40;10.13;;;;;;;3.95;92.92;94206.25;5055288;28;20445;-75
2021/03/18 00:37:48;;;;;;;15.17;10.60;;;;;;;3.94;91.68;94202.00;5054733;28;20913;-76
2021/03/18 00:40:19;;;;;;;11.63;10.40;;;;;;;3.86;90.69;94207.75;5055193;28;20914;-75
2021/03/18 00:42:54;;;;;;;11.13;9.47;;;;;;;3.92;91.27;94203.88;5054710;28;20441;-75
2021/03/18 00:45:21;;;;;;;14.80;10.07;;;;;;;3.95;92.34;94199.31;5054639;28;20456;-75
2021/03/18 00:47:51;;;;;;;14.80;10.10;;;;;;;3.94;91.15;94195.03;5054071;28;20441;-75
2021/03/18 00:50:23;;;;;;;14.37;10.30;;;;;;;3.94;91.37;94200.25;5054368;28;20495;-75
2021/03/18 00:52:50;;;;;;;14.00;10.20;;;;;;;3.88;91.07;94200.69;5054129;28;20441;-75
2021/03/18 00:55:17;;;;;;;13.77;10.67;;;;;;;3.83;89.44;94201.94;5053883;28;20445;-75
2021/03/18 00:57:43;;;;;;;14.00;10.03;;;;;;;3.86;90.22;94197.34;5054161;28;20445;-75
2021/03/18 01:00:16;;;;;;;11.80;10.07;;;;;;;3.86;89.92;94201.72;5054274;28;21062;-75
2021/03/18 01:02:42;;;;;;;11.80;10.10;;;;;;;3.92;91.05;94201.28;5054281;28;20949;-75
2021/03/18 01:05:11;;;;;;;14.43;11.53;;;;;;;3.79;88.79;94203.91;5054707;28;20436;-75
2021/03/18 01:07:38;;;;;;;13.07;10.27;;;;;;;3.81;89.29;94196.03;5054458;28;20956;-75
2021/03/18 01:10:08;;;;;;;12.00;10.70;;;;;;;3.78;89.68;94215.22;5019268;28;20452;-75
2021/03/18 01:12:36;;;;;;;13.67;10.37;;;;;;;3.69;88.64;94211.50;5053941;28;20437;-75
2021/03/18 01:15:05;;;;;;;12.90;9.20;;;;;;;3.64;88.76;94208.38;5054293;28;20456;-76
2021/03/18 01:17:32;;;;;;;13.70;10.27;;;;;;;3.61;90.57;94208.59;5054639;28;20441;-75
2021/03/18 01:19:58;;;;;;;12.77;9.93;;;;;;;3.59;88.77;94207.88;5054363;28;20473;-75
2021/03/18 01:22:24;;;;;;;13.17;10.00;;;;;;;3.55;88.68;94214.22;5053857;28;20841;-75
2021/03/18 01:24:54;;;;;;;14.40;10.00;;;;;;;3.47;89.60;94205.28;5054072;28;20449;-76
2021/03/18 01:27:21;;;;;;;13.27;9.43;;;;;;;3.43;89.30;94215.03;5054330;28;20448;-75
2021/03/18 01:29:48;;;;;;;15.30;10.83;;;;;;;3.50;90.06;94210.28;5054081;28;20489;-75
2021/03/18 01:32:14;;;;;;;13.00;9.70;;;;;;;3.51;89.75;94217.94;5053915;28;20479;-75
2021/03/18 01:34:41;;;;;;;12.30;10.40;;;;;;;3.47;89.38;94211.31;5054281;28;20494;-75
2021/03/18 01:37:07;;;;;;;15.00;10.60;;;;;;;3.51;90.17;94210.19;5053702;28;20776;-75
2021/03/18 01:39:33;;;;;;;18.10;12.13;;;;;;;3.56;91.12;94215.03;5053958;28;20960;-75
2021/03/18 01:42:00;;;;;;;15.00;9.87;;;;;;;3.55;90.28;94228.94;5054047;28;20449;-75
2021/03/18 01:44:26;;;;;;;13.83;9.80;;;;;;;3.48;89.96;94207.78;5053779;28;20464;-76
2021/03/18 01:46:53;;;;;;;15.13;11.10;;;;;;;3.56;89.24;94215.88;5035183;28;20467;-75
2021/03/18 01:49:20;;;;;;;16.13;11.77;;;;;;;3.61;88.42;94223.34;5018514;28;20484;-75
2021/03/18 01:51:46;;;;;;;16.00;11.87;;;;;;;3.70;88.71;94213.16;5053518;28;20460;-75
2021/03/18 01:54:13;;;;;;;15.43;11.50;;;;;;;3.72;88.99;94221.66;5053381;28;20425;-75
2021/03/18 01:56:39;;;;;;;17.70;11.13;;;;;;;3.84;88.59;94217.41;5053766;28;20453;-75
2021/03/18 01:59:06;;;;;;;15.03;11.57;;;;;;;3.74;86.90;94222.38;5054259;28;20778;-75
2021/03/18 02:01:32;;;;;;;13.30;9.97;;;;;;;3.74;86.99;94222.38;5053714;28;20499;-75
2021/03/18 02:03:59;;;;;;;16.53;11.40;;;;;;;3.66;86.09;94229.84;5053332;28;20460;-75
2021/03/18 02:06:27;;;;;;;12.00;10.10;;;;;;;3.63;87.03;94229.25;5018463;28;20453;-76
2021/03/18 02:08:53;;;;;;;15.00;10.67;;;;;;;3.69;86.60;94231.41;5054010;28;20485;-75
2021/03/18 02:11:19;;;;;;;16.90;11.30;;;;;;;3.69;88.27;94232.25;5053583;28;20430;-75
2021/03/18 02:13:46;;;;;;;13.77;9.60;;;;;;;3.72;87.70;94237.22;5053668;28;20452;-76
2021/03/18 02:16:14;;;;;;;11.97;10.43;;;;;;;3.81;87.74;94237.53;5053990;28;20461;-75
2021/03/18 02:19:03;;;;;;;11.33;10.07;;;;;;;3.88;87.64;94242.19;5053349;28;20473;-75
2021/03/18 02:21:58;;;;;;;14.07;10.00;;;;;;;3.87;87.67;94242.31;5052883;28;20425;-76
2021/03/18 02:24:43;;;;;;;14.27;10.47;;;;;;;3.91;87.72;94241.97;5053393;28;20928;-75
2021/03/18 02:27:57;;;;;;;11.97;10.00;;;;;;;3.91;88.20;94246.34;4991720;28;20492;-75
2021/03/18 02:30:45;;;;;;;15.80;10.40;;;;;;;3.87;86.45;94250.09;4992066;28;20447;-75
2021/03/18 02:33:32;;;;;;;12.77;9.13;;;;;;;3.88;86.95;94251.75;4991529;28;20483;-75
2021/03/18 02:36:03;;;;;;;13.80;9.73;;;;;;;3.84;86.76;94248.53;4992147;28;20858;-75
2021/03/18 02:38:32;;;;;;;12.67;10.20;;;;;;;3.86;86.21;94238.06;4991675;28;20459;-76
2021/03/18 02:41:03;;;;;;;12.95;10.50;;;;;;;3.94;86.67;94246.97;4991385;28;20455;-76
2021/03/18 02:43:33;;;;;;;11.20;9.70;;;;;;;3.99;86.31;94244.03;4991676;28;20208;-75
2021/03/18 02:46:02;;;;;;;12.60;9.70;;;;;;;4.06;86.77;94245.28;4991744;28;20571;-75
2021/03/18 02:48:32;;;;;;;12.50;10.10;;;;;;;4.07;86.11;94257.34;4991385;28;20486;-76
2021/03/18 02:51:00;;;;;;;11.63;9.40;;;;;;;4.06;84.95;94254.84;4991478;28;20452;-75
2021/03/18 02:53:28;;;;;;;11.13;9.40;;;;;;;3.99;85.79;94250.06;4943708;28;20498;-75
2021/03/18 02:55:57;;;;;;;13.63;9.77;;;;;;;3.88;86.66;94254.34;4991504;28;20436;-75
2021/03/18 02:58:29;;;;;;;11.53;9.37;;;;;;;3.87;86.88;94250.09;4959217;28;20480;-75
2021/03/18 03:00:58;;;;;;;14.77;10.20;;;;;;;3.82;86.61;94244.38;4992005;28;20536;-75
2021/03/18 03:03:26;;;;;;;13.03;10.67;;;;;;;3.71;86.75;94245.09;4999599;28;20459;-75
2021/03/18 03:05:55;;;;;;;11.73;8.73;;;;;;;3.55;86.31;94247.94;5056276;28;20789;-75
2021/03/18 03:08:23;;;;;;;13.83;10.33;;;;;;;3.55;87.64;94250.53;5056695;28;20477;-75
2021/03/18 03:10:54;;;;;;;17.70;11.30;;;;;;;3.55;88.21;94254.88;5056459;28;20499;-75
2021/03/18 03:13:21;;;;;;;15.93;11.77;;;;;;;3.62;88.32;94241.38;5056264;28;20468;-75
2021/03/18 03:15:49;;;;;;;12.93;10.00;;;;;;;3.65;87.70;94248.97;5057259;28;20536;-75
2021/03/18 03:18:17;;;;;;;12.93;9.67;;;;;;;3.65;87.12;94242.94;5056123;28;20920;-75
2021/03/18 03:20:43;;;;;;;14.30;10.07;;;;;;;3.63;87.34;94243.03;5056402;28;20957;-76
2021/03/18 03:23:10;;;;;;;11.40;9.40;;;;;;;3.58;86.65;94250.31;5056694;28;20443;-75
2021/03/18 03:25:38;;;;;;;15.27;10.70;;;;;;;3.62;86.56;94251.75;5056147;28;20488;-75
2021/03/18 03:28:09;;;;;;;13.67;10.60;;;;;;;3.62;87.17;94254.34;5056566;28;20434;-75
2021/03/18 03:30:36;;;;;;;9.30;8.30;;;;;;;3.60;87.30;94252.81;5056130;28;20456;-75
2021/03/18 03:33:05;;;;;;;13.00;9.57;;;;;;;3.47;86.33;94255.41;5056177;28;20430;-75
2021/03/18 03:35:31;;;;;;;15.73;10.77;;;;;;;3.40;87.73;94257.56;5056244;28;20521;-75
2021/03/18 03:37:58;;;;;;;13.73;11.50;;;;;;;3.40;88.73;94267.94;5055877;28;20799;-75
2021/03/18 03:40:24;;;;;;;15.17;11.83;;;;;;;3.46;88.43;94266.69;5021040;28;20449;-76
2021/03/18 03:42:51;;;;;;;14.57;10.07;;;;;;;3.53;89.09;94269.72;5056001;28;20441;-75
2021/03/18 03:45:18;;;;;;;12.77;9.50;;;;;;;3.44;89.21;94265.97;5056049;28;20446;-75
2021/03/18 03:47:45;;;;;;;13.97;9.77;;;;;;;3.41;90.43;94266.16;5056048;28;20450;-76
2021/03/18 03:50:15;;;;;;;12.47;10.33;;;;;;;3.38;91.07;94275.00;5055554;28;20491;-75
2021/03/18 03:52:48;;;;;;;14.90;10.60;;;;;;;3.38;92.08;94263.78;5055515;28;20524;-75
2021/03/18 03:55:28;;;;;;;13.60;10.67;;;;;;;3.38;92.24;94264.63;5055984;28;20437;-76
2021/03/18 03:57:59;;;;;;;16.43;10.83;;;;;;;3.33;92.80;94268.44;5055416;28;20909;-76
2021/03/18 04:00:26;;;;;;;15.03;11.37;;;;;;;3.28;93.07;94263.56;5055995;28;20449;-76
2021/03/18 04:02:57;;;;;;;12.53;10.70;;;;;;;3.30;92.90;94261.72;5055909;28;20934;-75
2021/03/18 04:05:27;;;;;;;13.37;10.90;;;;;;;3.31;92.85;94262.53;5055344;28;20510;-75
2021/03/18 04:07:56;;;;;;;14.67;10.20;;;;;;;3.23;92.42;94257.03;5055553;28;20448;-76
2021/03/18 04:10:25;;;;;;;12.30;10.77;;;;;;;3.33;92.15;94266.69;5055534;28;20970;-76
2021/03/18 04:12:52;;;;;;;14.57;10.17;;;;;;;3.31;91.49;94263.38;5055753;28;20464;-75
2021/03/18 04:15:20;;;;;;;13.53;10.10;;;;;;;3.35;91.74;94274.38;5055451;28;20464;-75
2021/03/18 04:17:51;;;;;;;14.27;10.70;;;;;;;3.33;90.45;94269.28;5055014;28;20830;-75
2021/03/18 04:20:20;;;;;;;12.83;10.27;;;;;;;3.31;89.83;94271.16;5056003;28;20461;-75
2021/03/18 04:22:50;;;;;;;14.97;11.83;;;;;;;3.36;89.33;94276.03;5054880;28;20524;-75
2021/03/18 04:25:17;;;;;;;12.73;10.20;;;;;;;3.36;89.48;94276.03;5055140;28;20444;-75
2021/03/18 04:27:45;;;;;;;14.27;9.60;;;;;;;3.36;88.66;94268.25;5055057;28;20473;-75
2021/03/18 04:30:14;;;;;;;14.90;9.60;;;;;;;3.30;88.56;94276.44;5055142;28;20485;-75
2021/03/18 04:32:44;;;;;;;11.40;9.73;;;;;;;3.28;88.35;94275.72;5055553;28;20476;-75
2021/03/18 04:35:12;;;;;;;14.57;9.93;;;;;;;3.27;88.62;94274.06;5055570;28;20433;-77
2021/03/18 04:37:39;;;;;;;12.40;9.73;;;;;;;3.23;88.06;94285.56;5054726;28;20436;-78
2021/03/18 04:40:10;;;;;;;12.27;8.60;;;;;;;3.22;89.04;94276.13;5036360;28;20465;-77
2021/03/18 04:42:37;;;;;;;12.87;9.57;;;;;;;3.16;89.30;94286.88;5054969;28;20562;-75
2021/03/18 04:45:05;;;;;;;17.23;10.90;;;;;;;3.28;90.22;94284.31;5054958;28;20445;-75
2021/03/18 04:47:33;;;;;;;12.23;8.40;;;;;;;3.29;89.32;94292.94;5054862;28;20438;-75
2021/03/18 04:50:02;;;;;;;13.47;10.13;;;;;;;3.26;88.05;94285.34;5020373;28;20531;-75
2021/03/18 04:52:28;;;;;;;16.83;10.87;;;;;;;3.32;88.21;94290.13;5054611;28;20855;-75
2021/03/18 04:58:23;;;;;;;12.93;9.20;;;;;;;3.39;88.38;94297.38;5054493;28;20459;-75
2021/03/18 05:00:50;;;;;;;10.07;9.03;;;;;;;3.46;88.17;94302.16;5054367;28;20489;-75
2021/03/18 05:03:17;;;;;;;9.30;7.90;;;;;;;3.46;88.24;94303.00;5054988;28;20426;-75
2021/03/18 05:05:45;;;;;;;12.00;9.30;;;;;;;3.45;87.66;94314.31;5054196;28;20483;-76
2021/03/18 05:08:13;;;;;;;13.47;8.67;;;;;;;3.47;87.90;94314.19;5054713;28;20426;-75
2021/03/18 05:10:42;;;;;;;10.63;8.90;;;;;;;3.46;87.86;94315.97;5054495;28;20465;-75
2021/03/18 05:13:12;;;;;;;16.30;9.67;;;;;;;3.51;88.65;94321.69;5054135;28;20433;-74
2021/03/18 05:15:40;;;;;;;17.57;9.03;;;;;;;3.48;89.03;94329.69;5054824;28;20868;-75
2021/03/18 05:18:09;;;;;;;9.57;7.97;;;;;;;3.50;88.77;94330.41;5054106;28;20433;-76
2021/03/18 05:20:36;;;;;;;8.87;7.97;;;;;;;3.55;88.78;94330.09;5054091;28;20439;-74
2021/03/18 05:23:05;;;;;;;10.60;8.73;;;;;;;3.61;88.04;94327.09;5053915;28;20486;-74
2021/03/18 05:25:32;;;;;;;11.97;9.10;;;;;;;3.54;88.67;94328.44;5054237;28;20441;-75
2021/03/18 05:27:59;;;;;;;11.43;8.00;;;;;;;3.52;88.76;94328.56;5052953;28;20438;-75
2021/03/18 05:30:27;;;;;;;11.00;9.00;;;;;;;3.49;88.54;94338.28;5053915;28;20831;-76
2021/03/18 05:32:54;;;;;;;9.77;7.87;;;;;;;3.43;89.26;94337.75;5053976;28;20889;-75
2021/03/18 05:35:21;;;;;;;11.97;8.47;;;;;;;3.35;89.95;94336.59;5054013;28;20520;-76
2021/03/18 05:37:47;;;;;;;11.80;9.20;;;;;;;3.39;90.73;94338.06;5054327;28;20430;-76
2021/03/18 05:40:16;;;;;;;13.13;9.37;;;;;;;3.48;90.81;94341.81;5053686;28;20909;-74
2021/03/18 05:42:43;;;;;;;12.33;8.90;;;;;;;3.48;89.79;94352.19;5018996;28;20445;-75
2021/03/18 05:45:11;;;;;;;13.23;10.43;;;;;;;3.48;89.87;94355.63;5053963;28;20449;-76
2021/03/18 05:47:38;;;;;;;12.53;9.50;;;;;;;3.53;88.94;94350.13;5053722;28;20457;-75
2021/03/18 05:50:07;;;;;;;12.20;9.40;;;;;;;3.64;90.43;94347.66;5053358;28;20523;-76
2021/03/18 05:52:34;;;;;;;17.80;10.60;;;;;;;3.74;89.22;94354.69;5053353;28;20547;-76
2021/03/18 05:55:02;;;;;;;12.97;9.57;;;;;;;3.86;88.71;94360.03;5053556;28;20509;-76
2021/03/18 05:57:29;;;;;;;15.67;10.53;;;;;;;3.96;87.62;94361.06;5053843;28;20448;-76
2021/03/18 05:59:57;;;;;;;16.27;11.90;;;;;;;3.95;87.54;94365.41;5053624;28;20441;-76
2021/03/18 06:02:24;;;;;;;13.60;10.97;;;;;;;3.96;87.44;94363.66;5053278;28;20414;-75
2021/03/18 06:04:50;;;;;;;11.00;9.27;;;;;;;3.91;87.59;94357.94;5053244;28;20436;-75
2021/03/18 06:07:17;;;;;;;15.13;9.63;;;;;;;3.99;86.95;94366.03;5053467;28;20436;-75
2021/03/18 06:09:43;;;;;;;10.57;9.10;;;;;;;4.01;86.09;94375.38;5053431;28;20580;-75
2021/03/18 06:12:10;;;;;;;11.27;9.10;;;;;;;4.05;85.49;94365.63;5053080;28;20465;-75
2021/03/18 06:14:37;;;;;;;11.60;7.90;;;;;;;3.93;84.86;94371.66;5053524;28;20449;-75
2021/03/18 06:17:04;;;;;;;12.57;8.33;;;;;;;3.89;85.80;94371.03;5053027;28;20424;-75
2021/03/18 06:19:30;;;;;;;11.37;9.37;;;;;;;3.89;85.97;94376.22;5053461;28;20535;-74
2021/03/18 06:21:58;;;;;;;11.67;8.40;;;;;;;3.80;86.10;94386.38;5052823;28;20941;-75
2021/03/18 06:24:26;;;;;;;14.20;10.00;;;;;;;3.79;86.88;94382.13;5053199;28;20434;-75
2021/03/18 06:26:53;;;;;;;11.80;8.60;;;;;;;3.70;87.71;94386.16;5018842;28;20460;-75
2021/03/18 06:29:31;;;;;;;10.80;8.70;;;;;;;3.70;88.24;94384.38;5053147;28;20548;-75
2021/03/18 06:32:01;;;;;;;9.17;8.17;;;;;;;3.67;88.49;94379.41;5052994;28;20436;-75
2021/03/18 06:34:39;;;;;;;14.13;8.17;;;;;;;3.67;88.32;94384.59;5053434;28;20445;-75
2021/03/18 06:37:06;;;;;;;11.90;7.80;;;;;;;3.80;88.80;94383.78;5052816;28;20769;-75
2021/03/18 06:39:32;;;;;;;10.83;8.80;;;;;;;3.90;88.12;94388.25;5020896;28;20448;-76
2021/03/18 06:42:00;;;;;;;8.53;7.63;;;;;;;3.97;86.88;94386.91;5057314;28;20539;-76
2021/03/18 06:44:28;;;;;;;14.97;7.47;;;;;;;4.16;85.82;94394.28;5020200;28;20524;-76
2021/03/18 06:46:57;;;;;;;12.30;9.87;;;;;;;4.27;86.20;94396.97;5056774;28;20441;-76
2021/03/18 06:49:26;;;;;;;11.80;8.60;;;;;;;4.38;85.10;94392.84;5056747;28;20484;-76
2021/03/18 06:52:02;;;;;;;13.53;9.50;;;;;;;4.60;83.28;94399.03;5057645;28;20426;-82
2021/03/18 06:54:28;;;;;;;9.47;7.70;;;;;;;4.66;83.27;94405.59;5056970;28;20441;-75
2021/03/18 06:56:56;;;;;;;11.43;8.63;;;;;;;4.86;83.95;94396.38;5057453;28;20885;-77
2021/03/18 06:59:24;;;;;;;9.33;8.00;;;;;;;5.05;82.48;94407.13;5057072;28;20449;-77
2021/03/18 07:02:08;;;;;;;8.97;6.37;;;;;;;5.20;80.71;94400.00;5056900;28;20507;-74
2021/03/18 07:04:37;;;;;;;10.53;9.40;;;;;;;5.52;80.67;94411.53;5021894;28;20441;-77
2021/03/18 07:07:04;;;;;;;12.33;8.60;;;;;;;5.84;79.66;94392.72;5056218;28;20449;-77
2021/03/18 07:09:31;;;;;;;7.47;6.27;;;;;;;5.93;75.11;94410.28;5021826;28;20491;-77
2021/03/18 07:12:03;;;;;;;12.17;8.53;;;;;;;5.96;78.65;94402.25;5054797;28;20487;-74
2021/03/18 07:14:35;;;;;;;7.00;6.27;;;;;;;5.99;74.47;94412.44;5036323;28;20454;-75
2021/03/18 07:17:01;;;;;;;8.07;6.30;;;;;;;5.87;72.34;94411.56;5037328;28;20433;-79
2021/03/18 07:19:30;;;;;;;10.03;7.90;;;;;;;5.99;75.04;94409.00;5036645;28;20492;-77
2021/03/18 07:21:58;;;;;;;7.80;5.60;;;;;;;5.87;72.26;94395.09;5050179;28;20430;-77
2021/03/18 07:24:29;;;;;;;6.83;6.13;;;;;;;5.78;72.79;94421.78;5056045;28;20774;-77
2021/03/18 07:26:57;;;;;;;7.00;6.30;;;;;;;5.68;73.67;94413.00;5056729;28;20437;-76
2021/03/18 07:29:26;;;;;;;10.67;8.23;;;;;;;5.68;76.59;94407.81;5056678;28;20564;-77
2021/03/18 07:31:53;;;;;;;10.07;7.13;;;;;;;5.60;73.02;94411.81;5056354;28;20905;-76
2021/03/18 07:34:20;;;;;;;10.23;8.60;;;;;;;5.57;75.58;94408.59;5055935;28;20438;-76
2021/03/18 07:36:46;;;;;;;9.07;8.07;;;;;;;5.46;73.75;94409.38;5056173;28;20452;-77
2021/03/18 07:39:17;;;;;;;11.30;7.87;;;;;;;5.33;74.69;94411.19;5037453;28;20454;-77
2021/03/18 07:41:48;;;;;;;12.43;7.67;;;;;;;5.26;75.83;94407.38;5056304;28;20798;-77
2021/03/18 07:44:16;;;;;;;7.37;6.53;;;;;;;5.18;76.00;94405.31;5056574;28;20440;-77
2021/03/18 07:46:44;;;;;;;7.60;6.80;;;;;;;5.20;77.09;94416.47;5056528;28;20449;-76
2021/03/18 07:49:14;;;;;;;10.33;8.00;;;;;;;5.09;74.95;94405.16;5056181;28;20477;-77
2021/03/18 07:51:42;;;;;;;15.83;10.47;;;;;;;5.18;75.05;94412.28;5055275;28;20451;-76
2021/03/18 07:54:13;;;;;;;10.17;7.50;;;;;;;5.17;76.25;94423.63;5055928;28;20931;-77
2021/03/18 07:56:46;;;;;;;12.40;8.23;;;;;;;5.10;75.55;94420.63;5056027;28;20445;-76
2021/03/18 07:59:12;;;;;;;15.57;10.17;;;;;;;5.09;76.23;94423.34;5055752;28;20437;-75
2021/03/18 08:01:40;;;;;;;6.80;6.10;;;;;;;5.12;76.24;94418.75;5055768;28;20449;-76
2021/03/18 08:04:08;;;;;;;6.40;5.53;;;;;;;5.03;77.19;94421.19;5055681;28;20429;-76
2021/03/18 08:06:54;;;;;;;9.20;5.70;;;;;;;4.91;75.76;94421.09;5055508;28;20921;-76
2021/03/18 08:12:45;;;;;;;8.60;6.17;;;;;;;5.06;76.11;94423.56;5038890;28;20440;-76
2021/03/18 08:15:45;;;;;;;6.60;5.90;;;;;;;5.08;77.14;94421.69;5055817;28;20456;-75
2021/03/18 08:18:41;;;;;;;12.00;8.23;;;;;;;5.09;77.26;94418.97;5052876;28;20437;-76
2021/03/18 08:21:09;;;;;;;10.03;7.10;;;;;;;5.16;76.58;94428.00;5020545;28;20454;-76
2021/03/18 08:23:52;;;;;;;7.30;6.53;;;;;;;5.20;76.03;94431.22;5033242;28;20847;-76
2021/03/18 08:26:35;;;;;;;9.70;7.83;;;;;;;5.31;77.09;94425.25;5033022;28;20446;-76
2021/03/18 08:29:04;;;;;;;7.90;6.93;;;;;;;5.33;76.07;94425.97;5032996;28;20477;-76
2021/03/18 08:31:45;;;;;;;9.83;8.37;;;;;;;5.48;76.30;94436.09;5033396;28;20426;-76
2021/03/18 08:34:12;;;;;;;11.47;8.60;;;;;;;5.49;75.98;94444.72;5032975;28;20532;-76
2021/03/18 08:36:40;;;;;;;7.43;6.40;;;;;;;5.43;75.46;94437.38;5032709;28;20966;-75
2021/03/18 08:39:08;;;;;;;10.53;7.87;;;;;;;5.40;76.84;94440.19;5032761;28;20438;-76
2021/03/18 08:41:38;;;;;;;14.90;9.97;;;;;;;5.48;76.54;94453.47;5032888;28;20471;-77
2021/03/18 08:44:22;;;;;;;10.40;7.90;;;;;;;5.66;75.85;94446.13;5033026;28;20422;-76
2021/03/18 08:46:52;;;;;;;13.40;8.63;;;;;;;5.82;76.42;94441.47;5032670;28;20434;-76
2021/03/18 08:49:30;;;;;;;9.03;5.97;;;;;;;5.72;75.08;94446.50;5032937;28;20477;-76
2021/03/18 08:51:58;;;;;;;9.33;6.70;;;;;;;5.64;76.71;94446.25;5032438;28;20453;-76
2021/03/18 08:54:53;;;;;;;8.30;6.90;;;;;;;5.62;76.47;94452.50;5036826;28;20834;-76
2021/03/18 08:57:32;;;;;;;7.87;7.07;;;;;;;5.45;75.04;94443.28;5054876;28;20509;-76
2021/03/18 09:00:02;;;;;;;10.43;6.40;;;;;;;5.45;75.62;94441.53;5054728;28;20845;-76
2021/03/18 09:02:31;;;;;;;11.27;8.30;;;;;;;5.54;75.61;94446.09;5050680;28;20453;-76
2021/03/18 09:04:59;;;;;;;13.77;9.67;;;;;;;5.65;76.25;94441.88;5054737;28;20464;-77
2021/03/18 09:07:27;;;;;;;11.33;8.00;;;;;;;5.90;76.66;94442.59;5054462;28;20452;-76
2021/03/18 09:10:15;;;;;;;10.43;7.33;;;;;;;5.98;75.19;94434.22;5054617;28;20481;-77
2021/03/18 09:12:46;;;;;;;13.87;8.57;;;;;;;6.11;73.66;94434.97;5054506;28;20433;-76
2021/03/18 09:15:25;;;;;;;9.93;7.50;;;;;;;6.32;73.28;94442.09;5054471;28;20449;-76
2021/03/18 09:17:53;;;;;;;6.60;5.33;;;;;;;6.34;71.78;94440.22;5054717;28;20437;-76
2021/03/18 09:27:07;;;;;;;7.07;6.07;;;;;;;5.98;72.86;94439.41;5053981;28;20428;-76
2021/03/18 09:29:33;;;;;;;8.43;6.70;;;;;;;6.00;72.13;94444.50;5053710;28;20999;-76
2021/03/18 09:32:05;;;;;;;9.87;7.67;;;;;;;6.17;74.93;94454.53;5054322;28;20834;-76
2021/03/18 09:34:32;;;;;;;10.23;7.10;;;;;;;6.20;72.48;94451.69;5053664;28;21028;-76
2021/03/18 09:36:59;;;;;;;9.03;6.20;;;;;;;6.21;72.21;94454.19;5053917;28;20476;-76
2021/03/18 09:39:25;;;;;;;8.27;7.47;;;;;;;6.34;72.15;94456.66;5035242;28;20434;-76
2021/03/18 09:41:52;;;;;;;7.73;6.00;;;;;;;6.34;71.78;94451.47;5054168;28;20429;-76
2021/03/18 09:44:20;;;;;;;12.77;7.97;;;;;;;6.37;71.95;94450.44;5053825;28;20438;-76
2021/03/18 09:46:49;;;;;;;8.40;6.20;;;;;;;6.26;73.60;94453.00;5054677;28;20434;-76
2021/03/18 09:49:16;;;;;;;4.83;4.43;;;;;;;6.10;72.83;94459.38;5053780;28;20484;-76
2021/03/18 09:51:44;;;;;;;6.20;5.60;;;;;;;6.12;73.46;94460.06;5054238;28;20865;-76
2021/03/18 09:54:13;;;;;;;7.47;5.90;;;;;;;6.04;74.04;94470.22;5053355;28;21042;-76
2021/03/18 09:56:42;;;;;;;5.40;4.90;;;;;;;5.94;76.34;94469.25;5053412;28;20454;-76
2021/03/18 09:59:11;;;;;;;9.93;7.07;;;;;;;5.84;77.73;94483.84;5053143;28;20925;-76
2021/03/18 10:01:37;;;;;;;7.50;6.57;;;;;;;5.83;80.10;94472.59;5018178;28;20441;-76
2021/03/18 10:04:06;;;;;;;10.13;7.70;;;;;;;5.81;79.94;94471.06;5042008;28;20450;-76
2021/03/18 10:06:35;;;;;;;6.53;5.93;;;;;;;5.78;78.38;94461.69;5033039;28;20447;-76
2021/03/18 10:09:20;;;;;;;6.80;5.70;;;;;;;5.85;77.72;94472.50;5033156;28;20486;-76
2021/03/18 10:11:48;;;;;;;6.53;5.70;;;;;;;5.83;79.31;94466.56;5033269;28;20442;-75
2021/03/18 10:14:16;;;;;;;10.07;6.90;;;;;;;5.84;81.76;94478.66;5032941;28;20461;-76
2021/03/18 10:16:45;;;;;;;8.80;6.70;;;;;;;5.90;82.21;94488.63;5033286;28;20970;-76
2021/03/18 10:19:12;;;;;;;7.00;6.00;;;;;;;5.88;82.63;94490.50;5033925;28;20477;-76
2021/03/18 10:21:40;;;;;;;5.73;5.13;;;;;;;5.58;82.26;94490.94;5045365;28;20446;-76
2021/03/18 10:27:36;;;;;;;10.40;6.73;;;;;;;5.47;82.86;94486.47;5053446;28;20427;-76
2021/03/18 10:30:10;;;;;;;6.70;6.00;;;;;;;5.54;85.50;94495.53;5052954;28;20465;-76
2021/03/18 10:32:37;;;;;;;6.03;5.40;;;;;;;5.56;85.87;94495.41;5052760;28;20802;-76
2021/03/18 10:35:04;;;;;;;8.17;6.73;;;;;;;5.65;84.17;94510.38;5053076;28;20429;-76
2021/03/18 10:37:36;;;;;;;6.03;5.53;;;;;;;5.60;82.97;94492.47;5052964;28;20449;-76
2021/03/18 10:40:17;;;;;;;7.70;6.30;;;;;;;5.70;83.90;94491.81;5019757;28;20449;-76
2021/03/18 10:42:46;;;;;;;10.30;6.10;;;;;;;5.87;82.34;94497.47;5053748;28;20894;-76
2021/03/18 10:45:18;;;;;;;16.63;10.27;;;;;;;5.88;79.84;94495.69;5052606;28;20945;-77
2021/03/18 10:47:45;;;;;;;21.13;11.73;;;;;;;5.98;79.99;94483.69;5052991;28;20453;-77
2021/03/18 10:50:13;;;;;;;13.57;9.50;;;;;;;6.12;79.72;94486.13;5052611;28;20473;-76
2021/03/18 10:52:40;;;;;;;6.87;6.17;;;;;;;6.27;78.75;94491.97;5018004;28;20994;-77
2021/03/18 10:55:08;;;;;;;5.83;5.13;;;;;;;6.37;81.49;94490.34;5053846;28;20472;-76
2021/03/18 10:57:35;;;;;;;14.40;8.37;;;;;;;6.44;78.13;94488.94;5018004;28;20991;-77
2021/03/18 11:00:05;;;;;;;13.73;6.60;;;;;;;6.35;75.98;94491.38;5053227;28;20438;-76
2021/03/18 11:02:32;;;;;;;6.13;4.80;;;;;;;6.16;77.20;94492.75;5034118;28;20445;-77
2021/03/18 11:05:01;;;;;;;8.70;7.00;;;;;;;6.14;78.78;94501.63;5052448;28;20425;-76
2021/03/18 11:07:28;;;;;;;7.23;6.37;;;;;;;6.13;79.08;94493.00;5052562;28;20446;-77
2021/03/18 11:10:10;;;;;;;6.73;6.07;;;;;;;6.17;81.43;94496.19;5052511;28;20879;-77
2021/03/18 11:12:37;;;;;;;8.70;5.93;;;;;;;6.08;78.43;94496.88;5052780;28;20449;-77
2021/03/18 11:15:05;;;;;;;7.27;6.53;;;;;;;6.13;79.65;94487.78;5052287;28;20489;-76
2021/03/18 11:17:31;;;;;;;6.93;5.93;;;;;;;6.20;77.91;94491.59;5052939;28;20442;-77
2021/03/18 11:23:26;;;;;;;10.07;7.20;;;;;;;6.63;76.88;94483.16;5051719;28;21106;-77
2021/03/18 11:25:57;;;;;;;9.67;6.07;;;;;;;6.71;72.93;94483.41;5053834;28;20456;-78
2021/03/18 11:28:23;;;;;;;6.20;5.60;;;;;;;6.65;71.76;94476.06;5056223;28;20543;-76
2021/03/18 11:30:50;;;;;;;9.80;6.17;;;;;;;6.78;73.95;94476.78;5056493;28;20473;-77
2021/03/18 11:33:18;;;;;;;6.10;5.50;;;;;;;6.87;72.36;94474.41;5055926;28;20496;-77
2021/03/18 11:35:47;;;;;;;5.90;5.30;;;;;;;6.68;70.46;94477.59;5055893;28;20441;-77
2021/03/18 11:38:14;;;;;;;7.27;6.60;;;;;;;6.62;72.74;94481.47;5055917;28;20429;-77
2021/03/18 11:40:41;;;;;;;10.37;7.27;;;;;;;6.73;73.64;94471.09;5056052;28;20841;-76
2021/03/18 11:43:09;;;;;;;17.87;11.17;;;;;;;6.77;71.75;94488.16;5055790;28;20937;-76
2021/03/18 11:45:36;;;;;;;10.43;7.10;;;;;;;6.93;71.55;94474.75;5055760;28;20808;-76
2021/03/18 11:48:04;;;;;;;13.27;8.93;;;;;;;6.99;70.25;94476.91;5055947;28;20437;-76
2021/03/18 11:50:30;;;;;;;11.50;7.83;;;;;;;6.94;69.76;94478.19;5055780;28;20500;-76
2021/03/18 11:52:57;;;;;;;5.93;5.33;;;;;;;6.80;67.62;94476.66;5055880;28;20454;-76
2021/03/18 11:55:24;;;;;;;9.17;6.80;;;;;;;6.62;68.26;94471.06;5055810;28;20437;-77
2021/03/18 11:57:55;;;;;;;8.10;5.77;;;;;;;7.98;76.36;94476.00;5056804;28;20430;-77
2021/03/18 12:00:23;;;;;;;12.27;7.90;;;;;;;7.60;68.56;94481.69;5055742;28;20466;-76
2021/03/18 12:02:49;;;;;;;6.63;5.93;;;;;;;7.33;69.10;94479.50;5056008;28;20441;-78
2021/03/18 12:05:16;;;;;;;8.13;6.90;;;;;;;7.16;70.71;94480.81;5055694;28;20500;-77